Time;durP1;ratioP1;P1;durP2;ratioP2;P2;SDS_P1;SDS_P2;PMS_P1;PMS_P2;Temp;Humidity;BMP_temperature;BMP_pressure;BME280_temperature;BME280_humidity;BME280_pressure;Samples;Min_cycle;Max_cycle;Signal;HPM_P1;HPM_P2
2023/06/12 00:01:46;;;;;;;4.53;4.13;;;18.50;83.50;;;;;;5035346;28;20739;-69
2023/06/12 00:04:12;;;;;;;5.20;3.70;;;18.40;86.20;;;;;;5033767;28;20176;-69
2023/06/12 00:06:38;;;;;;;5.57;4.17;;;18.40;88.20;;;;;;5034204;28;20484;-69
2023/06/12 00:09:04;;;;;;;4.17;3.83;;;18.40;90.20;;;;;;5035214;28;20175;-69
2023/06/12 00:11:30;;;;;;;4.17;3.77;;;18.30;91.30;;;;;;5035219;28;20172;-69
2023/06/12 00:13:55;;;;;;;5.93;3.70;;;18.30;91.80;;;;;;5034748;28;20513;-69
2023/06/12 00:16:22;;;;;;;5.13;4.20;;;18.20;92.30;;;;;;5035065;28;20241;-69
2023/06/12 00:18:49;;;;;;;4.27;3.87;;;18.20;92.90;;;;;;5035064;28;20176;-69
2023/06/12 00:21:15;;;;;;;4.57;3.80;;;18.10;93.30;;;;;;5035003;28;20418;-69
2023/06/12 00:23:41;;;;;;;3.80;3.50;;;18.10;93.70;;;;;;5033424;28;20541;-70
2023/06/12 00:26:08;;;;;;;3.60;3.30;;;18.00;94.10;;;;;;5034828;28;20429;-70
2023/06/12 00:28:34;;;;;;;3.33;3.03;;;18.00;94.40;;;;;;5043125;28;20900;-69
2023/06/12 00:31:00;;;;;;;3.83;3.53;;;18.00;94.40;;;;;;5054771;28;20483;-70
2023/06/12 00:33:26;;;;;;;4.00;2.87;;;18.00;94.40;;;;;;5054640;28;20297;-70
2023/06/12 00:35:52;;;;;;;4.60;3.73;;;18.00;94.90;;;;;;5054275;28;20198;-70
2023/06/12 00:38:18;;;;;;;4.43;3.27;;;17.90;95.00;;;;;;5054647;28;20409;-69
2023/06/12 00:40:43;;;;;;;4.27;3.97;;;17.90;95.90;;;;;;5054454;28;20731;-70
2023/06/12 00:43:09;;;;;;;4.83;4.10;;;17.90;96.60;;;;;;5054292;28;20286;-69
2023/06/12 00:45:35;;;;;;;5.03;3.73;;;17.90;97.40;;;;;;5053768;28;20183;-69
2023/06/12 00:48:01;;;;;;;5.17;3.83;;;17.80;98.90;;;;;;5054559;28;20413;-68
2023/06/12 00:50:27;;;;;;;4.47;3.47;;;17.80;99.90;;;;;;5053917;28;20770;-69
2023/06/12 00:52:57;;;;;;;4.30;3.90;;;17.80;99.90;;;;;;5054218;28;20171;-69
2023/06/12 00:55:24;;;;;;;4.80;4.40;;;17.70;99.90;;;;;;5053841;28;20453;-68
2023/06/12 00:57:49;;;;;;;4.57;4.17;;;17.70;99.90;;;;;;5053906;28;20496;-68
2023/06/12 01:00:17;;;;;;;4.13;3.37;;;17.60;99.90;;;;;;5054115;28;20444;-69
2023/06/12 01:02:50;;;;;;;3.53;3.23;;;17.60;99.90;;;;;;5054026;28;20197;-70
2023/06/12 01:05:32;;;;;;;4.80;3.57;;;17.50;99.90;;;;;;5053741;28;20425;-69
2023/06/12 01:08:17;;;;;;;4.97;4.03;;;17.50;99.90;;;;;;5054057;28;20458;-69
2023/06/12 01:10:50;;;;;;;4.73;4.07;;;17.40;99.90;;;;;;5053905;28;20500;-68
2023/06/12 01:13:16;;;;;;;4.70;3.30;;;17.40;99.90;;;;;;5054008;28;20458;-69
2023/06/12 01:15:42;;;;;;;6.40;3.97;;;17.30;99.90;;;;;;5053489;28;20778;-68
2023/06/12 01:18:08;;;;;;;5.43;4.27;;;17.30;99.90;;;;;;5053873;28;20408;-69
2023/06/12 01:20:35;;;;;;;5.37;4.03;;;17.30;99.90;;;;;;5053924;28;20432;-68
2023/06/12 01:23:21;;;;;;;4.27;3.93;;;17.20;99.90;;;;;;5054999;28;20453;-68
2023/06/12 01:26:07;;;;;;;6.20;4.80;;;17.20;99.90;;;;;;5053615;28;20432;-68
2023/06/12 01:28:43;;;;;;;4.37;3.97;;;17.20;99.90;;;;;;5053977;28;20925;-68
2023/06/12 01:31:18;;;;;;;7.90;4.13;;;17.10;99.90;;;;;;5053746;28;20437;-69
2023/06/12 01:33:54;;;;;;;4.33;3.93;;;17.10;99.90;;;;;;5053418;28;20393;-68
2023/06/12 01:36:25;;;;;;;5.20;4.30;;;17.00;99.90;;;;;;5053758;28;20431;-68
2023/06/12 01:38:59;;;;;;;11.20;7.77;;;17.00;99.90;;;;;;5053464;28;20403;-69
2023/06/12 01:41:28;;;;;;;10.40;7.53;;;16.90;99.90;;;;;;5053225;28;20409;-67
2023/06/12 01:43:53;;;;;;;7.77;5.27;;;16.90;99.90;;;;;;5053052;28;20765;-67
2023/06/12 01:46:19;;;;;;;6.73;4.63;;;16.90;99.90;;;;;;5053153;28;20421;-67
2023/06/12 01:48:44;;;;;;;8.10;4.00;;;16.90;99.90;;;;;;5053151;28;20170;-68
2023/06/12 01:51:10;;;;;;;4.97;4.30;;;16.80;99.90;;;;;;5053160;28;20171;-68
2023/06/12 01:53:35;;;;;;;4.00;3.63;;;16.80;99.90;;;;;;5052883;28;20171;-69
2023/06/12 01:56:01;;;;;;;3.83;3.33;;;16.80;99.90;;;;;;5052882;28;20194;-69
2023/06/12 01:58:27;;;;;;;3.67;3.03;;;16.70;99.90;;;;;;5053019;28;20179;-69
2023/06/12 02:00:53;;;;;;;4.30;3.90;;;16.70;99.90;;;;;;5053105;28;20182;-69
2023/06/12 02:03:22;;;;;;;4.87;4.33;;;16.70;99.90;;;;;;5051866;28;20456;-69
2023/06/12 02:05:48;;;;;;;4.30;3.90;;;16.60;99.90;;;;;;5052555;28;20522;-70
2023/06/12 02:08:14;;;;;;;4.27;3.83;;;16.60;99.90;;;;;;5052878;28;20456;-68
2023/06/12 02:10:40;;;;;;;3.40;2.97;;;16.60;99.90;;;;;;5052736;28;20430;-68
2023/06/12 02:13:05;;;;;;;4.40;3.87;;;16.50;99.90;;;;;;5052820;28;20190;-68
2023/06/12 02:15:31;;;;;;;5.20;3.87;;;16.50;99.90;;;;;;5052421;28;20850;-68
2023/06/12 02:17:56;;;;;;;4.47;3.43;;;16.50;99.90;;;;;;5052478;28;20167;-69
2023/06/12 02:20:22;;;;;;;4.33;3.70;;;16.40;99.90;;;;;;5052663;28;20178;-68
2023/06/12 02:22:48;;;;;;;3.33;3.03;;;16.40;99.90;;;;;;5052480;28;20198;-68
2023/06/12 02:25:13;;;;;;;4.03;3.50;;;16.40;99.90;;;;;;5052144;28;20183;-69
2023/06/12 02:27:39;;;;;;;4.17;3.70;;;16.30;99.90;;;;;;5052436;28;20166;-69
2023/06/12 02:30:05;;;;;;;3.90;3.60;;;16.30;99.90;;;;;;5052540;28;20179;-69
2023/06/12 02:32:33;;;;;;;4.53;3.53;;;16.30;99.90;;;;;;5052224;28;20198;-68
2023/06/12 02:35:00;;;;;;;6.80;4.07;;;16.20;99.90;;;;;;5052044;28;20867;-69
2023/06/12 02:37:27;;;;;;;7.70;6.50;;;16.20;99.90;;;;;;5052279;28;20769;-69
2023/06/12 02:39:53;;;;;;;3.63;3.33;;;16.20;99.90;;;;;;5052290;28;20419;-70
2023/06/12 02:42:19;;;;;;;4.40;4.00;;;16.20;99.90;;;;;;5052093;28;20457;-70
2023/06/12 02:44:45;;;;;;;4.60;4.20;;;16.20;99.90;;;;;;5051896;28;20206;-69
2023/06/12 02:47:11;;;;;;;5.90;4.37;;;16.10;99.90;;;;;;5052158;28;20167;-69
2023/06/12 02:49:44;;;;;;;5.37;4.53;;;16.10;99.90;;;;;;5052135;28;20984;-69
2023/06/12 02:52:09;;;;;;;3.60;3.30;;;16.00;99.90;;;;;;5052145;28;20163;-69
2023/06/12 02:54:35;;;;;;;4.40;3.90;;;16.00;99.90;;;;;;5052213;28;20431;-68
2023/06/12 02:57:00;;;;;;;4.40;4.00;;;16.00;99.90;;;;;;5052377;28;20175;-68
2023/06/12 02:59:26;;;;;;;5.40;3.20;;;16.00;99.90;;;;;;5052197;28;20171;-68
2023/06/12 03:01:51;;;;;;;5.27;3.50;;;15.90;99.90;;;;;;5051997;28;20416;-68
2023/06/12 03:04:19;;;;;;;4.93;3.83;;;15.90;99.90;;;;;;5051670;28;20166;-68
2023/06/12 03:06:45;;;;;;;4.37;3.97;;;15.90;99.90;;;;;;5051920;28;20559;-68
2023/06/12 03:09:12;;;;;;;4.47;4.07;;;15.90;99.90;;;;;;5051861;28;20401;-68
2023/06/12 03:11:37;;;;;;;6.40;4.50;;;15.90;99.90;;;;;;5051931;28;20898;-67
2023/06/12 03:14:05;;;;;;;5.20;4.10;;;15.90;99.90;;;;;;5051296;28;20397;-69
2023/06/12 03:16:31;;;;;;;4.77;4.33;;;15.90;99.90;;;;;;5051894;28;20405;-69
2023/06/12 03:18:57;;;;;;;5.93;4.30;;;15.90;99.90;;;;;;5051294;28;20429;-69
2023/06/12 03:21:22;;;;;;;4.80;4.30;;;15.90;99.90;;;;;;5050466;28;20456;-69
2023/06/12 03:23:48;;;;;;;4.23;3.63;;;15.90;99.90;;;;;;5050287;28;20170;-69
2023/06/12 03:26:14;;;;;;;3.97;3.67;;;15.90;99.90;;;;;;5051294;28;20183;-68
2023/06/12 03:28:40;;;;;;;4.30;3.73;;;15.90;99.90;;;;;;5051609;28;20170;-69
2023/06/12 03:31:05;;;;;;;6.17;3.50;;;15.90;99.90;;;;;;5051385;28;20427;-68
2023/06/12 03:33:31;;;;;;;4.00;3.70;;;15.90;99.90;;;;;;5051543;28;20174;-68
2023/06/12 03:35:57;;;;;;;4.13;3.70;;;15.80;99.90;;;;;;5051814;28;20186;-68
2023/06/12 03:38:23;;;;;;;4.80;4.30;;;15.80;99.90;;;;;;5052208;28;20201;-68
2023/06/12 03:40:48;;;;;;;4.97;3.60;;;15.80;99.90;;;;;;5051781;28;20441;-68
2023/06/12 03:43:14;;;;;;;4.33;3.43;;;15.80;99.90;;;;;;5051636;28;20282;-68
2023/06/12 03:45:39;;;;;;;4.90;4.17;;;15.80;99.90;;;;;;5052004;28;20179;-68
2023/06/12 03:48:05;;;;;;;5.70;3.73;;;15.80;99.90;;;;;;5051926;28;20182;-68
2023/06/12 03:50:31;;;;;;;7.27;6.47;;;15.80;99.90;;;;;;5051629;28;20182;-69
2023/06/12 03:52:56;;;;;;;7.50;5.50;;;15.80;99.90;;;;;;5051347;28;20246;-69
2023/06/12 03:55:23;;;;;;;6.77;6.03;;;15.80;99.90;;;;;;5051089;28;20244;-69
2023/06/12 03:57:49;;;;;;;5.30;4.13;;;15.80;99.90;;;;;;5051489;28;20216;-69
2023/06/12 04:00:15;;;;;;;4.50;4.07;;;15.90;99.90;;;;;;5051482;28;20931;-69
2023/06/12 04:02:40;;;;;;;5.00;4.50;;;15.90;99.90;;;;;;5051439;28;20277;-69
2023/06/12 04:05:08;;;;;;;4.87;4.07;;;15.90;99.90;;;;;;5051044;28;20422;-69
2023/06/12 04:07:37;;;;;;;4.57;4.10;;;16.00;99.90;;;;;;5051324;28;20170;-69
2023/06/12 04:10:04;;;;;;;4.53;3.33;;;16.00;99.90;;;;;;5051162;28;20406;-71
2023/06/12 04:12:30;;;;;;;4.17;3.73;;;16.10;99.90;;;;;;5051126;28;20567;-72
2023/06/12 04:14:55;;;;;;;11.07;6.57;;;16.10;99.90;;;;;;5051032;28;20532;-72
2023/06/12 04:17:21;;;;;;;7.00;4.70;;;16.10;99.90;;;;;;5051372;28;20424;-72
2023/06/12 04:19:48;;;;;;;4.07;3.10;;;16.20;99.90;;;;;;5034571;28;20253;-72
2023/06/12 04:22:15;;;;;;;5.77;4.50;;;16.20;99.90;;;;;;5051791;28;20940;-72
2023/06/12 04:24:42;;;;;;;5.33;4.07;;;16.30;99.90;;;;;;5051485;28;20413;-72
2023/06/12 04:27:10;;;;;;;6.27;4.43;;;16.30;99.90;;;;;;5054464;28;20781;-72
2023/06/12 04:29:42;;;;;;;4.60;3.70;;;16.40;99.90;;;;;;5054728;28;20924;-72
2023/06/12 04:32:09;;;;;;;5.27;4.37;;;16.40;99.90;;;;;;5036839;28;20413;-72
2023/06/12 04:34:40;;;;;;;6.40;3.00;;;16.50;99.90;;;;;;5054284;28;20425;-72
2023/06/12 04:37:13;;;;;;;4.57;3.97;;;16.60;99.90;;;;;;5054614;28;20402;-72
2023/06/12 04:39:43;;;;;;;4.80;3.60;;;16.60;99.90;;;;;;5054699;28;20957;-72
2023/06/12 04:42:10;;;;;;;5.20;3.47;;;16.70;99.90;;;;;;5054595;28;20995;-72
2023/06/12 04:44:37;;;;;;;4.47;3.70;;;16.70;99.90;;;;;;5054157;28;20456;-72
2023/06/12 04:47:10;;;;;;;7.83;4.10;;;16.80;99.90;;;;;;5054458;28;20402;-72
2023/06/12 04:49:37;;;;;;;5.20;2.60;;;16.90;99.90;;;;;;5054438;28;20408;-72
2023/06/12 04:52:03;;;;;;;3.90;3.33;;;17.00;99.90;;;;;;5054999;28;20777;-72
2023/06/12 04:54:35;;;;;;;6.30;4.30;;;17.10;99.90;;;;;;5054509;28;20995;-72
2023/06/12 04:57:07;;;;;;;5.90;4.73;;;17.20;99.90;;;;;;5054155;28;20493;-72
2023/06/12 04:59:37;;;;;;;5.90;3.80;;;17.30;99.90;;;;;;5054285;28;20436;-71
2023/06/12 05:02:03;;;;;;;6.60;4.00;;;17.40;99.90;;;;;;5054039;28;20479;-71
2023/06/12 05:04:29;;;;;;;4.40;4.00;;;17.50;99.90;;;;;;5054537;28;20960;-72
2023/06/12 05:06:56;;;;;;;4.27;3.87;;;17.70;99.90;;;;;;5054722;28;20394;-72
2023/06/12 05:09:21;;;;;;;4.67;4.20;;;17.80;99.90;;;;;;5053991;28;20166;-71
2023/06/12 05:11:47;;;;;;;5.07;4.20;;;17.90;99.90;;;;;;5053953;28;20913;-70
2023/06/12 05:14:12;;;;;;;4.50;4.10;;;18.10;99.90;;;;;;5053580;28;20182;-71
2023/06/12 05:16:38;;;;;;;4.10;3.70;;;18.20;99.90;;;;;;5035991;28;20166;-71
2023/06/12 05:19:03;;;;;;;6.30;5.30;;;18.30;99.90;;;;;;5053837;28;20174;-71
2023/06/12 05:21:29;;;;;;;5.37;4.17;;;18.50;99.90;;;;;;5053704;28;20192;-70
2023/06/12 05:23:55;;;;;;;4.50;4.03;;;18.60;99.90;;;;;;5035594;28;20175;-72
2023/06/12 05:26:21;;;;;;;4.53;4.13;;;18.60;99.90;;;;;;5053561;28;20183;-72
2023/06/12 05:28:46;;;;;;;6.83;4.60;;;18.70;99.90;;;;;;5053553;28;20428;-72
2023/06/12 05:31:12;;;;;;;7.50;4.97;;;18.90;99.90;;;;;;5053613;28;20198;-71
2023/06/12 05:33:38;;;;;;;5.90;4.47;;;19.00;99.90;;;;;;5053243;28;20221;-71
2023/06/12 05:36:04;;;;;;;6.27;4.50;;;19.10;99.90;;;;;;5035758;28;20441;-73
2023/06/12 05:38:30;;;;;;;5.53;4.37;;;19.10;99.90;;;;;;5054111;28;20557;-72
2023/06/12 05:40:56;;;;;;;5.10;3.73;;;19.10;99.90;;;;;;5053926;28;20405;-73
2023/06/12 05:43:21;;;;;;;6.30;4.80;;;19.30;99.90;;;;;;5053684;28;20218;-73
2023/06/12 05:45:47;;;;;;;5.70;4.73;;;19.30;99.90;;;;;;5053315;28;20794;-73
2023/06/12 05:48:12;;;;;;;5.60;4.20;;;19.50;99.90;;;;;;5053593;28;20163;-72
2023/06/12 05:50:38;;;;;;;4.53;4.03;;;19.70;99.90;;;;;;5053552;28;20245;-73
2023/06/12 05:53:04;;;;;;;5.27;4.13;;;19.80;99.90;;;;;;5053588;28;20167;-73
2023/06/12 05:55:30;;;;;;;5.80;4.57;;;20.00;99.90;;;;;;5053210;28;20275;-73
2023/06/12 05:57:55;;;;;;;5.60;4.87;;;20.20;99.90;;;;;;5035748;28;20512;-72
2023/06/12 06:00:21;;;;;;;5.00;4.50;;;20.50;99.90;;;;;;5053087;28;20177;-72
2023/06/12 06:02:47;;;;;;;7.40;4.57;;;20.90;99.90;;;;;;5053514;28;20194;-73
2023/06/12 06:05:12;;;;;;;5.00;4.60;;;21.60;99.90;;;;;;5053028;28;20425;-72
2023/06/12 06:07:38;;;;;;;9.50;5.30;;;22.10;99.90;;;;;;5052944;28;20163;-72
2023/06/12 06:10:07;;;;;;;6.10;5.00;;;23.10;99.90;;;;;;5052864;28;20163;-72
2023/06/12 06:12:33;;;;;;;5.30;4.70;;;24.00;99.90;;;;;;5052855;28;20167;-72
2023/06/12 06:14:59;;;;;;;6.43;4.80;;;24.80;97.70;;;;;;5052439;28;20432;-74
2023/06/12 06:17:24;;;;;;;5.03;4.50;;;25.90;94.70;;;;;;5052735;28;20653;-74
2023/06/12 06:19:50;;;;;;;4.87;4.37;;;27.00;90.30;;;;;;5052746;28;20174;-74
2023/06/12 06:22:18;;;;;;;6.03;4.83;;;27.50;75.70;;;;;;5052723;28;20198;-75
2023/06/12 06:24:44;;;;;;;4.27;3.93;;;28.30;70.50;;;;;;5052568;28;20674;-74
2023/06/12 06:27:10;;;;;;;7.23;4.63;;;28.80;63.60;;;;;;5052788;28;20394;-75
2023/06/12 06:29:36;;;;;;;6.90;4.70;;;29.50;59.30;;;;;;5048314;28;20474;-74
2023/06/12 06:32:01;;;;;;;4.83;4.43;;;30.00;57.80;;;;;;5051547;28;20189;-75
2023/06/12 06:34:28;;;;;;;5.13;4.73;;;30.80;56.10;;;;;;5052356;28;20516;-74
2023/06/12 06:36:55;;;;;;;5.00;4.50;;;31.40;52.50;;;;;;5052547;28;20258;-75
2023/06/12 06:39:21;;;;;;;4.97;4.57;;;31.70;50.60;;;;;;5052478;28;20402;-71
2023/06/12 06:41:47;;;;;;;6.00;5.50;;;32.10;48.90;;;;;;5052255;28;20445;-73
2023/06/12 06:44:12;;;;;;;5.90;5.17;;;32.20;48.20;;;;;;5051993;28;20197;-73
2023/06/12 06:46:38;;;;;;;5.50;5.07;;;32.30;47.00;;;;;;5052247;28;20167;-74
2023/06/12 06:49:03;;;;;;;4.90;4.37;;;32.20;46.50;;;;;;5051734;28;20677;-73
2023/06/12 06:51:30;;;;;;;6.23;4.57;;;32.40;45.70;;;;;;5052222;28;20163;-74
2023/06/12 06:53:57;;;;;;;5.00;4.50;;;32.80;44.20;;;;;;5051994;28;20631;-74
2023/06/12 06:56:22;;;;;;;4.73;4.37;;;33.20;44.70;;;;;;5052020;28;20444;-74
2023/06/12 06:58:48;;;;;;;5.03;4.63;;;33.30;43.10;;;;;;5052102;28;20406;-74
2023/06/12 07:01:15;;;;;;;5.50;4.37;;;33.50;44.00;;;;;;5052075;28;20167;-74
2023/06/12 07:03:41;;;;;;;5.80;5.23;;;33.70;42.80;;;;;;5050430;28;20713;-74
2023/06/12 07:06:06;;;;;;;5.43;5.00;;;33.80;41.80;;;;;;5052015;28;20425;-74
2023/06/12 07:08:32;;;;;;;4.87;4.47;;;33.60;40.60;;;;;;5052009;28;20171;-74
2023/06/12 07:10:58;;;;;;;5.30;4.90;;;33.80;40.70;;;;;;5052068;28;20162;-74
2023/06/12 07:13:23;;;;;;;5.37;4.87;;;34.10;41.00;;;;;;5052056;28;20162;-74
2023/06/12 07:15:49;;;;;;;5.07;4.67;;;34.30;39.90;;;;;;5051722;28;20213;-74
2023/06/12 07:18:14;;;;;;;4.90;4.47;;;34.90;40.50;;;;;;5051989;28;20219;-74
2023/06/12 07:20:40;;;;;;;5.13;4.73;;;35.40;38.00;;;;;;5051888;28;20631;-74
2023/06/12 07:23:06;;;;;;;5.67;4.57;;;35.20;37.80;;;;;;5051841;28;20255;-74
2023/06/12 07:25:31;;;;;;;5.13;4.67;;;35.60;37.70;;;;;;5051561;28;20550;-74
2023/06/12 07:27:57;;;;;;;5.40;4.90;;;35.10;35.80;;;;;;5051791;28;20171;-75
2023/06/12 07:30:22;;;;;;;5.20;4.80;;;34.70;36.00;;;;;;5033953;28;20642;-74
2023/06/12 07:32:48;;;;;;;4.87;4.47;;;34.90;37.10;;;;;;5051849;28;20581;-74
2023/06/12 07:35:15;;;;;;;4.83;4.43;;;35.40;37.60;;;;;;5051709;28;20545;-74
2023/06/12 07:37:42;;;;;;;4.70;4.30;;;36.80;37.40;;;;;;5051848;28;20193;-75
2023/06/12 07:40:09;;;;;;;5.20;4.80;;;36.90;34.50;;;;;;5051880;28;20401;-75
2023/06/12 07:42:35;;;;;;;5.97;4.70;;;37.30;34.00;;;;;;5051737;28;20449;-75
2023/06/12 07:45:01;;;;;;;5.80;5.30;;;37.60;33.80;;;;;;5051725;28;20453;-75
2023/06/12 07:47:26;;;;;;;5.67;4.70;;;37.90;32.60;;;;;;5051400;28;20444;-75
2023/06/12 07:49:52;;;;;;;5.30;4.90;;;37.90;32.00;;;;;;5051649;28;20531;-75
2023/06/12 07:52:17;;;;;;;5.17;4.63;;;37.60;31.90;;;;;;5051628;28;20661;-75
2023/06/12 07:54:43;;;;;;;5.90;4.77;;;37.70;31.80;;;;;;5051467;28;20187;-74
2023/06/12 07:57:10;;;;;;;6.17;5.67;;;37.80;31.30;;;;;;5051497;28;20529;-75
2023/06/12 07:59:36;;;;;;;4.83;4.30;;;38.40;31.50;;;;;;5051697;28;20190;-74
2023/06/12 08:02:02;;;;;;;5.53;4.73;;;38.80;30.70;;;;;;5054716;28;20445;-74
2023/06/12 08:04:29;;;;;;;5.70;4.47;;;39.20;31.20;;;;;;5055053;28;20426;-75
2023/06/12 08:06:54;;;;;;;5.50;5.10;;;39.10;29.40;;;;;;5055346;28;20402;-74
2023/06/12 08:09:20;;;;;;;5.47;5.07;;;39.00;29.50;;;;;;5055277;28;20777;-75
2023/06/12 08:11:45;;;;;;;5.00;4.60;;;39.10;29.70;;;;;;5055169;28;20643;-74
2023/06/12 08:14:11;;;;;;;4.93;4.63;;;40.20;30.90;;;;;;5070412;28;20639;-74
2023/06/12 08:16:37;;;;;;;5.47;5.00;;;41.10;29.40;;;;;;5055139;28;20170;-75
2023/06/12 08:19:03;;;;;;;5.67;5.00;;;40.70;28.70;;;;;;5070530;28;20171;-75
2023/06/12 08:21:28;;;;;;;4.83;4.43;;;41.50;28.40;;;;;;5054962;28;20197;-74
2023/06/12 08:23:54;;;;;;;6.20;5.10;;;41.60;28.90;;;;;;5054870;28;20162;-74
2023/06/12 08:26:20;;;;;;;4.90;4.60;;;42.20;27.80;;;;;;5054925;28;20207;-75
2023/06/12 08:28:49;;;;;;;5.27;4.90;;;41.80;27.70;;;;;;5070151;28;20461;-74
2023/06/12 08:31:15;;;;;;;5.17;4.77;;;41.40;27.40;;;;;;5055007;28;20159;-75
2023/06/12 08:33:41;;;;;;;5.03;4.73;;;41.80;27.50;;;;;;5054344;28;20387;-74
2023/06/12 08:36:06;;;;;;;5.07;4.77;;;42.20;27.10;;;;;;5054708;28;20206;-74
2023/06/12 08:38:32;;;;;;;5.87;5.47;;;41.90;27.30;;;;;;5054597;28;20202;-74
2023/06/12 08:41:00;;;;;;;6.40;4.93;;;41.20;27.60;;;;;;5054624;28;20250;-74
2023/06/12 08:43:28;;;;;;;6.17;5.33;;;41.50;27.90;;;;;;5054535;28;20198;-74
2023/06/12 08:45:56;;;;;;;5.50;5.10;;;42.10;28.10;;;;;;5054206;28;20479;-74
2023/06/12 08:48:25;;;;;;;5.37;5.07;;;42.60;27.30;;;;;;5054418;28;20872;-74
2023/06/12 08:50:52;;;;;;;6.63;5.83;;;42.90;26.80;;;;;;5054422;28;20422;-75
2023/06/12 08:53:17;;;;;;;6.23;5.77;;;43.30;26.70;;;;;;5054389;28;20410;-75
2023/06/12 08:55:44;;;;;;;6.07;5.67;;;43.40;26.40;;;;;;5054160;28;20490;-75
2023/06/12 08:58:11;;;;;;;5.80;5.40;;;42.80;26.00;;;;;;5036366;28;20175;-74
2023/06/12 09:00:37;;;;;;;5.80;5.03;;;42.80;26.50;;;;;;5054350;28;20387;-74
2023/06/12 09:03:06;;;;;;;5.50;5.20;;;43.30;26.20;;;;;;5036139;28;20423;-75
2023/06/12 09:05:34;;;;;;;5.53;4.80;;;43.80;26.10;;;;;;5053869;28;20400;-75
2023/06/12 09:08:00;;;;;;;5.37;4.97;;;44.00;26.20;;;;;;5054177;28;20417;-75
2023/06/12 09:10:26;;;;;;;5.50;4.50;;;44.90;25.80;;;;;;5054253;28;20431;-75
2023/06/12 09:12:56;;;;;;;4.57;4.27;;;45.20;25.80;;;;;;5035736;28;20432;-75
2023/06/12 09:15:22;;;;;;;5.23;4.83;;;44.90;24.80;;;;;;5053809;28;20515;-75
2023/06/12 09:17:49;;;;;;;5.53;5.10;;;44.50;25.10;;;;;;5054195;28;20380;-76
2023/06/12 09:20:36;;;;;;;6.47;5.97;;;45.10;25.60;;;;;;5053974;28;20388;-76
2023/06/12 09:23:03;;;;;;;5.87;5.47;;;46.50;25.50;;;;;;5053890;28;20445;-76
2023/06/12 09:25:39;;;;;;;5.37;4.97;;;47.50;24.40;;;;;;5053568;28;20421;-76
2023/06/12 09:28:08;;;;;;;5.80;5.40;;;48.50;24.40;;;;;;5037024;28;20503;-75
2023/06/12 09:30:39;;;;;;;5.50;5.10;;;48.50;23.20;;;;;;5053802;28;20405;-75
2023/06/12 09:33:06;;;;;;;5.53;5.13;;;48.50;23.70;;;;;;5053779;28;20884;-75
2023/06/12 09:35:32;;;;;;;6.63;6.13;;;49.00;23.20;;;;;;5053362;28;20441;-75
2023/06/12 09:37:58;;;;;;;7.90;5.67;;;49.10;22.90;;;;;;5053698;28;20520;-75
2023/06/12 09:40:24;;;;;;;9.10;8.40;;;49.60;23.00;;;;;;5053547;28;20171;-75
2023/06/12 09:42:50;;;;;;;5.37;4.97;;;50.00;22.40;;;;;;5053572;28;20507;-76
2023/06/12 09:45:20;;;;;;;6.07;5.67;;;49.60;21.80;;;;;;5053113;28;20461;-75
2023/06/12 09:47:51;;;;;;;4.60;4.30;;;49.90;22.40;;;;;;5052258;28;20174;-76
2023/06/12 09:50:19;;;;;;;5.90;5.40;;;50.40;22.60;;;;;;5052191;28;20433;-75
2023/06/12 09:52:46;;;;;;;5.10;4.80;;;49.50;20.70;;;;;;5053429;28;20481;-76
2023/06/12 09:55:15;;;;;;;5.33;4.93;;;48.60;21.80;;;;;;5052653;28;20425;-70
2023/06/12 09:57:43;;;;;;;5.97;5.20;;;48.80;22.20;;;;;;5051887;28;20780;-71
2023/06/12 10:00:11;;;;;;;6.17;5.67;;;49.20;21.90;;;;;;5052993;28;20412;-71
2023/06/12 10:02:42;;;;;;;6.93;5.53;;;49.30;22.30;;;;;;5052951;28;20822;-71
2023/06/12 10:05:08;;;;;;;5.77;5.33;;;49.80;21.80;;;;;;5052640;28;20475;-72
2023/06/12 10:07:40;;;;;;;4.60;4.30;;;49.60;21.10;;;;;;5052883;28;20868;-71
2023/06/12 10:10:07;;;;;;;6.60;6.20;;;49.30;21.50;;;;;;5052932;28;20162;-71
2023/06/12 10:12:34;;;;;;;6.07;5.50;;;48.60;21.10;;;;;;5052752;28;20463;-71
2023/06/12 10:15:04;;;;;;;5.37;4.97;;;47.60;21.40;;;;;;5052684;28;20937;-71
2023/06/12 10:17:31;;;;;;;5.30;4.90;;;45.80;21.40;;;;;;5052846;28;20372;-71
2023/06/12 10:19:57;;;;;;;4.83;4.43;;;46.00;22.50;;;;;;5052630;28;20434;-70
2023/06/12 10:22:22;;;;;;;4.83;4.53;;;46.30;22.90;;;;;;5052387;28;20435;-71
2023/06/12 10:24:48;;;;;;;4.87;4.47;;;47.70;22.50;;;;;;5051692;28;20780;-72
2023/06/12 10:27:15;;;;;;;5.80;5.30;;;49.00;22.60;;;;;;5052582;28;20167;-71
2023/06/12 10:29:41;;;;;;;5.30;4.80;;;49.90;20.70;;;;;;5036796;28;20434;-73
2023/06/12 10:32:09;;;;;;;4.70;4.40;;;50.30;20.90;;;;;;5032353;28;20929;-73
2023/06/12 10:34:42;;;;;;;6.30;5.77;;;51.00;20.90;;;;;;5045077;28;20772;-72
2023/06/12 10:37:25;;;;;;;5.20;4.90;;;51.10;20.30;;;;;;5052221;28;20547;-71
2023/06/12 10:40:21;;;;;;;5.87;5.47;;;51.50;20.50;;;;;;5052041;28;20413;-72
2023/06/12 10:43:00;;;;;;;5.17;4.83;;;52.80;20.40;;;;;;5052136;28;21034;-71
2023/06/12 10:45:37;;;;;;;5.17;4.77;;;53.00;19.20;;;;;;5051745;28;20429;-72
2023/06/12 10:48:04;;;;;;;6.13;5.73;;;51.90;18.80;;;;;;5051383;28;20393;-71
2023/06/12 10:50:37;;;;;;;5.00;4.70;;;51.50;19.40;;;;;;5051979;28;20419;-72
2023/06/12 10:53:05;;;;;;;5.30;5.00;;;51.50;19.30;;;;;;5052206;28;20779;-72
2023/06/12 10:55:35;;;;;;;6.50;6.00;;;52.00;19.00;;;;;;5051575;28;20436;-71
2023/06/12 10:58:08;;;;;;;7.83;7.33;;;52.80;19.50;;;;;;5051900;28;20492;-74
2023/06/12 11:00:36;;;;;;;5.97;5.57;;;53.50;18.90;;;;;;5051947;28;20488;-72
2023/06/12 11:03:12;;;;;;;5.53;5.23;;;53.50;18.70;;;;;;5051915;28;20448;-72
2023/06/12 11:05:46;;;;;;;5.53;5.20;;;54.40;18.70;;;;;;5051723;28;20416;-72
2023/06/12 11:08:12;;;;;;;5.50;5.20;;;54.10;18.10;;;;;;5051863;28;20406;-72
2023/06/12 11:10:38;;;;;;;5.90;5.50;;;54.00;18.00;;;;;;5052086;28;20451;-72
2023/06/12 11:13:06;;;;;;;5.50;5.20;;;54.30;18.00;;;;;;5051751;28;20246;-71
2023/06/12 11:15:42;;;;;;;6.23;5.73;;;54.80;17.70;;;;;;5051643;28;20433;-73
2023/06/12 11:18:11;;;;;;;5.47;5.17;;;54.70;17.20;;;;;;5051640;28;20409;-72
2023/06/12 11:20:38;;;;;;;5.63;5.33;;;54.10;16.80;;;;;;5051674;28;20459;-72
2023/06/12 11:23:06;;;;;;;5.10;4.80;;;53.80;17.00;;;;;;5051860;28;20480;-72
2023/06/12 11:25:44;;;;;;;4.90;4.60;;;53.30;16.70;;;;;;5051215;28;20428;-72
2023/06/12 11:28:13;;;;;;;4.87;4.57;;;53.00;17.90;;;;;;5051559;28;20456;-73
2023/06/12 11:30:48;;;;;;;5.80;5.37;;;53.20;17.70;;;;;;5051693;28;20473;-72
2023/06/12 11:33:16;;;;;;;5.60;5.30;;;53.80;18.50;;;;;;5051715;28;20416;-72
2023/06/12 11:35:45;;;;;;;4.90;4.60;;;54.80;18.50;;;;;;5054209;28;20507;-72
2023/06/12 11:38:23;;;;;;;7.37;6.97;;;55.90;17.80;;;;;;5055693;28;20492;-72
2023/06/12 11:40:53;;;;;;;6.10;5.80;;;56.60;17.50;;;;;;5055717;28;20411;-72
2023/06/12 11:43:26;;;;;;;5.70;5.40;;;55.90;17.20;;;;;;5055532;28;20534;-71
2023/06/12 11:45:54;;;;;;;6.30;5.90;;;55.70;17.30;;;;;;5055151;28;20451;-72
2023/06/12 11:48:24;;;;;;;6.20;5.90;;;55.20;17.00;;;;;;5055555;28;20401;-72
2023/06/12 11:50:52;;;;;;;5.43;5.10;;;53.60;16.70;;;;;;5055494;28;20405;-71
2023/06/12 11:53:20;;;;;;;4.90;4.60;;;51.60;18.00;;;;;;5055454;28;20409;-71
2023/06/12 11:56:00;;;;;;;5.37;5.07;;;51.10;18.20;;;;;;5054812;28;20426;-71
2023/06/12 11:58:35;;;;;;;5.17;4.77;;;51.80;18.40;;;;;;5055394;28;20380;-72
2023/06/12 12:01:26;;;;;;;6.43;5.93;;;51.20;18.40;;;;;;5055214;28;20413;-71
2023/06/12 12:03:57;;;;;;;5.30;4.90;;;50.90;18.40;;;;;;5054887;28;20459;-71
2023/06/12 12:06:23;;;;;;;5.47;5.07;;;52.00;19.10;;;;;;5055091;28;20409;-71
2023/06/12 12:08:55;;;;;;;5.40;5.10;;;52.70;17.70;;;;;;5055154;28;20912;-72
2023/06/12 12:11:25;;;;;;;6.07;5.57;;;52.90;18.40;;;;;;5055097;28;20456;-71
2023/06/12 12:13:53;;;;;;;5.40;4.97;;;52.40;18.00;;;;;;5054485;28;20474;-71
2023/06/12 12:16:27;;;;;;;5.73;5.40;;;50.60;17.70;;;;;;5054969;28;20421;-70
2023/06/12 12:18:53;;;;;;;6.07;5.57;;;50.50;18.80;;;;;;5054918;28;20898;-71
2023/06/12 12:21:21;;;;;;;5.50;5.10;;;51.00;18.20;;;;;;5054926;28;20404;-71
2023/06/12 12:23:46;;;;;;;5.70;5.30;;;51.50;18.00;;;;;;5054569;28;20445;-71
2023/06/12 12:26:15;;;;;;;5.57;5.07;;;52.50;18.80;;;;;;5054786;28;20416;-71
2023/06/12 12:28:44;;;;;;;6.30;5.90;;;53.30;18.00;;;;;;5054675;28;20232;-71
2023/06/12 12:31:11;;;;;;;5.50;5.10;;;54.10;18.30;;;;;;5054761;28;20484;-72
2023/06/12 12:33:37;;;;;;;5.27;4.97;;;54.00;17.40;;;;;;5054359;28;20443;-72
2023/06/12 12:36:03;;;;;;;6.07;5.70;;;53.30;17.40;;;;;;5053995;28;20776;-72
2023/06/12 12:38:39;;;;;;;5.03;4.63;;;53.00;17.40;;;;;;5054018;28;20179;-72
2023/06/12 12:41:05;;;;;;;5.40;5.10;;;52.00;17.80;;;;;;5054005;28;20401;-72
2023/06/12 12:43:42;;;;;;;6.43;6.00;;;51.90;17.90;;;;;;5053993;28;20452;-74
2023/06/12 12:46:13;;;;;;;5.70;5.40;;;50.80;17.70;;;;;;5053657;28;20293;-73
2023/06/12 12:49:24;;;;;;;6.37;5.80;;;51.10;18.90;;;;;;5048421;28;20377;-73